Green Camp, Ohio
Current Conditions -  °F | °C
As of 4:53 PM on Monday 22 Dec 2014 (Local Time) from KMNN Reporting Station
Clear Clear  
Wind Chill: 36°   Ceiling: Unl
Heat Index: 42°   Visibility: 7mi
Dew Point: 33°   Wind: 10mph
Humidity: 70%   Direction: 130°SE
Pressure: 29.89"   Gusts: NA
Location:  40.53°N, 83.21°W
Report Text: KMNN 222153Z AUTO 13009KT 7SM CLR 06/01 A2989 RMK AO2 SLP131 T00560006 TSNO
Loading
Personal Weather Stations






























Interactive Weather Map New forecast layout! Learn more

10-Day Weather Forecast

Advertisements
Track Severe Weather on mobile